createdAt,value
2023-02-07T00:00:15.629Z,46.691327
2023-02-07T00:05:16.926Z,46.087169
2023-02-07T00:10:16.363Z,40.003996
2023-02-07T00:15:15.614Z,37.899975
2023-02-07T00:20:21.132Z,30.547663
2023-02-07T00:25:15.782Z,25.293395
2023-02-07T00:30:16.276Z,20.355804
2023-02-07T00:35:16.313Z,19.149892
2023-02-07T00:40:16.050Z,13.857369
2023-02-07T00:45:15.958Z,15.140149
2023-02-07T00:50:16.103Z,9.994519
2023-02-07T00:55:16.061Z,6.434048
2023-02-07T01:00:16.444Z,2.473360
2023-02-07T01:05:16.486Z,5.076956
2023-02-07T01:10:21.404Z,4.732351
2023-02-07T01:15:15.763Z,0.966226
2023-02-07T01:20:16.284Z,0.016080
2023-02-07T01:25:16.517Z,0.002244
2023-02-07T01:30:16.391Z,0.000000
2023-02-07T01:35:16.675Z,0.000000
2023-02-07T01:40:16.499Z,0.000000
2023-02-07T01:45:21.988Z,0.000000
2023-02-07T01:50:16.226Z,0.000000
2023-02-07T01:55:15.850Z,0.000000
2023-02-07T02:00:16.860Z,0.000000
2023-02-07T02:05:15.809Z,0.000000
2023-02-07T02:10:16.336Z,0.000000
2023-02-07T02:15:16.539Z,0.000000
2023-02-07T02:20:15.846Z,0.000000
2023-02-07T02:25:17.234Z,0.000000
2023-02-07T02:30:15.737Z,0.000000
2023-02-07T02:35:16.294Z,0.000000
2023-02-07T02:40:21.222Z,0.000000
2023-02-07T02:45:15.908Z,0.000000
2023-02-07T02:50:15.986Z,0.000000
2023-02-07T02:55:16.847Z,0.000000
2023-02-07T03:00:15.968Z,0.000000
2023-02-07T03:05:16.497Z,0.000000
2023-02-07T03:10:16.043Z,0.000000
2023-02-07T03:15:16.058Z,0.000000
2023-02-07T03:20:16.108Z,0.005708
2023-02-07T03:25:20.702Z,0.000000
2023-02-07T03:30:15.586Z,0.000000
2023-02-07T03:35:15.889Z,0.000000
2023-02-07T03:40:15.854Z,0.000000
2023-02-07T03:45:15.967Z,0.000000
2023-02-07T03:50:16.196Z,0.000000
2023-02-07T03:55:16.274Z,0.000000
2023-02-07T04:00:16.703Z,0.000000
2023-02-07T04:05:16.117Z,0.000000
2023-02-07T04:10:15.567Z,0.000000
2023-02-07T04:15:15.580Z,0.000000
2023-02-07T04:20:15.603Z,0.000000
2023-02-07T04:25:16.242Z,0.000000
2023-02-07T04:30:17.083Z,0.000000
2023-02-07T04:35:16.756Z,0.000000
2023-02-07T04:40:15.891Z,0.000000
2023-02-07T04:45:15.648Z,0.000000
2023-02-07T04:50:16.432Z,0.000000
2023-02-07T04:55:21.365Z,0.000000
2023-02-07T05:00:16.044Z,0.000000
2023-02-07T05:05:15.887Z,0.000000
2023-02-07T05:10:17.445Z,0.000000
2023-02-07T05:15:15.830Z,0.000000
2023-02-07T05:20:15.782Z,0.000000
2023-02-07T05:25:15.992Z,0.000000
2023-02-07T05:30:15.581Z,0.000000
2023-02-07T05:35:16.049Z,0.000000
2023-02-07T05:40:16.040Z,0.000000
2023-02-07T05:45:15.923Z,0.000000
2023-02-07T05:50:15.785Z,0.000000
2023-02-07T05:55:16.537Z,0.000000
2023-02-07T06:00:16.034Z,0.000000
2023-02-07T06:05:19.264Z,0.000000
2023-02-07T06:10:15.967Z,0.000000
2023-02-07T06:15:16.704Z,0.000000
2023-02-07T06:20:15.746Z,0.000000
2023-02-07T06:25:15.738Z,0.000000
2023-02-07T06:30:16.907Z,0.000000
2023-02-07T06:35:15.640Z,0.000000
2023-02-07T06:40:16.115Z,0.000000
2023-02-07T06:45:15.689Z,0.000000
2023-02-07T06:50:16.523Z,0.000000
2023-02-07T06:55:15.742Z,0.000000
2023-02-07T07:00:16.562Z,0.000000
2023-02-07T07:05:16.536Z,0.000000
2023-02-07T07:10:15.989Z,0.000000
2023-02-07T07:15:16.286Z,0.000000
2023-02-07T07:20:15.826Z,0.000000
2023-02-07T07:25:17.274Z,0.000000
2023-02-07T07:30:16.227Z,0.000000
2023-02-07T07:35:18.797Z,0.000000
2023-02-07T07:40:16.204Z,0.000000
2023-02-07T07:45:16.203Z,0.000000
2023-02-07T07:50:15.611Z,0.000000
2023-02-07T07:55:16.294Z,0.000000
2023-02-07T08:00:21.319Z,0.000000
2023-02-07T08:05:16.266Z,0.000000
2023-02-07T08:10:16.322Z,0.000000
2023-02-07T08:15:16.502Z,0.000000
2023-02-07T08:20:16.705Z,0.000000
2023-02-07T08:25:15.988Z,0.000000
2023-02-07T08:30:17.101Z,0.000000
2023-02-07T08:35:16.006Z,0.000000
2023-02-07T08:40:16.179Z,0.000000
2023-02-07T08:45:16.973Z,0.000000
2023-02-07T08:50:17.552Z,0.000000
2023-02-07T08:55:17.617Z,0.000000
2023-02-07T09:00:16.286Z,0.000000
2023-02-07T09:05:15.815Z,0.000000
2023-02-07T09:10:15.909Z,0.000000
2023-02-07T09:15:15.648Z,0.000000
2023-02-07T09:20:17.322Z,0.000000
2023-02-07T09:25:15.802Z,0.000000
2023-02-07T09:30:16.064Z,0.000000
2023-02-07T09:35:15.725Z,0.000000
2023-02-07T09:40:21.771Z,0.000000
2023-02-07T09:45:16.254Z,0.000000
2023-02-07T09:50:17.655Z,0.000000
2023-02-07T09:55:15.950Z,0.000000
2023-02-07T10:00:16.009Z,0.000000
2023-02-07T10:05:16.676Z,0.000000
2023-02-07T10:10:16.021Z,0.000000
2023-02-07T10:15:16.131Z,0.000000
2023-02-07T10:20:15.589Z,0.000000
2023-02-07T10:25:16.455Z,0.000000
2023-02-07T10:30:15.799Z,0.000000
2023-02-07T10:35:16.375Z,0.000000
2023-02-07T10:40:16.564Z,0.000000
2023-02-07T10:45:16.643Z,0.000000
2023-02-07T10:50:18.705Z,0.000000
2023-02-07T10:55:17.188Z,0.000000
2023-02-07T11:00:15.862Z,0.000000
2023-02-07T11:05:15.902Z,0.000000
2023-02-07T11:10:16.097Z,0.000000
2023-02-07T11:15:15.978Z,0.000000
2023-02-07T11:20:15.613Z,0.000000
2023-02-07T11:25:16.344Z,0.000000
2023-02-07T11:30:16.215Z,0.000000
2023-02-07T11:35:15.775Z,0.000000
2023-02-07T11:40:16.488Z,0.000000
2023-02-07T11:45:16.989Z,0.000000
2023-02-07T11:50:16.140Z,0.000000
2023-02-07T11:55:15.946Z,0.000000
2023-02-07T12:00:15.866Z,0.000000
2023-02-07T12:05:16.043Z,0.000000
2023-02-07T12:10:15.766Z,0.000000
2023-02-07T12:15:16.113Z,0.000000
2023-02-07T12:20:18.023Z,0.000000
2023-02-07T12:25:15.585Z,0.000000
2023-02-07T12:30:16.507Z,0.000000
2023-02-07T12:35:16.553Z,0.000000
2023-02-07T12:40:16.136Z,0.000000
2023-02-07T12:45:16.360Z,0.000000
2023-02-07T12:50:15.625Z,0.000000
2023-02-07T12:55:15.776Z,0.000000
2023-02-07T13:00:15.730Z,0.000000
2023-02-07T13:05:15.726Z,0.000000
2023-02-07T13:10:16.400Z,0.000000
2023-02-07T13:15:16.974Z,0.000000
2023-02-07T13:20:15.990Z,0.000000
2023-02-07T13:25:15.799Z,0.000000
2023-02-07T13:30:16.223Z,0.000000
2023-02-07T13:35:16.910Z,0.000000
2023-02-07T13:40:16.371Z,0.000000
2023-02-07T13:45:16.220Z,0.000000
2023-02-07T13:50:16.237Z,0.000000
2023-02-07T13:55:15.683Z,0.000000
2023-02-07T14:00:15.528Z,0.000000
2023-02-07T14:05:15.892Z,0.000000
2023-02-07T14:10:15.953Z,0.000000
2023-02-07T14:15:16.398Z,0.000000
2023-02-07T14:20:15.692Z,0.000000
2023-02-07T14:25:17.056Z,0.000000
2023-02-07T14:30:15.768Z,0.000000
2023-02-07T14:35:15.701Z,0.000000
2023-02-07T14:40:16.381Z,0.000000
2023-02-07T14:45:16.934Z,0.000000
2023-02-07T14:50:15.791Z,0.000000
2023-02-07T14:55:16.015Z,0.000000
2023-02-07T15:00:16.556Z,0.000000
2023-02-07T15:05:15.632Z,0.000000
2023-02-07T15:10:16.335Z,0.000000
2023-02-07T15:15:15.910Z,0.000000
2023-02-07T15:20:17.998Z,0.000000
2023-02-07T15:25:15.910Z,0.000000
2023-02-07T15:30:16.071Z,0.000000
2023-02-07T15:35:15.927Z,0.000000
2023-02-07T15:40:16.611Z,0.010160
2023-02-07T15:45:24.260Z,0.008956
2023-02-07T15:50:15.757Z,0.079392
2023-02-07T15:55:16.583Z,0.225487
2023-02-07T16:00:16.045Z,0.755412
2023-02-07T16:05:15.717Z,1.384838
2023-02-07T16:10:16.797Z,2.521676
2023-02-07T16:15:15.864Z,4.142029
2023-02-07T16:20:16.191Z,5.589075
2023-02-07T16:25:15.914Z,5.849876
2023-02-07T16:30:17.017Z,7.994144
2023-02-07T16:35:17.054Z,7.946523
2023-02-07T16:40:17.139Z,9.628959
2023-02-07T16:45:17.223Z,11.674299
2023-02-07T16:50:17.216Z,14.481047
2023-02-07T16:55:16.059Z,17.590683
2023-02-07T17:00:15.869Z,23.096583
2023-02-07T17:05:16.285Z,30.404042
2023-02-07T17:10:16.078Z,38.940760
2023-02-07T17:15:16.474Z,43.557345
2023-02-07T17:20:16.194Z,42.266003
2023-02-07T17:25:16.379Z,42.172742
2023-02-07T17:30:16.498Z,44.983486
2023-02-07T17:35:17.400Z,46.386110
2023-02-07T17:40:16.666Z,42.288776
2023-02-07T17:45:16.320Z,38.896598
2023-02-07T17:50:17.526Z,44.996392
2023-02-07T17:55:15.985Z,42.408437
2023-02-07T18:00:17.294Z,37.773704
2023-02-07T18:05:16.392Z,35.145468
2023-02-07T18:10:17.572Z,33.208205
2023-02-07T18:15:16.352Z,29.721126
2023-02-07T18:20:22.481Z,31.934617
2023-02-07T18:25:16.799Z,30.426047
2023-02-07T18:30:16.545Z,50.134571
2023-02-07T18:35:21.377Z,67.182601
2023-02-07T18:40:18.849Z,55.769051
2023-02-07T18:45:17.137Z,63.234342
2023-02-07T18:50:16.886Z,73.560267
2023-02-07T18:55:16.715Z,66.651968
2023-02-07T19:00:17.380Z,55.677968
2023-02-07T19:05:17.901Z,57.443707
2023-02-07T19:10:15.675Z,63.486218
2023-02-07T19:15:16.861Z,68.464591
2023-02-07T19:20:16.765Z,85.612339
2023-02-07T19:25:16.734Z,151.052317
2023-02-07T19:30:16.271Z,125.048959
2023-02-07T19:35:17.610Z,65.642195
2023-02-07T19:40:17.677Z,61.153109
2023-02-07T19:45:16.793Z,53.037788
2023-02-07T19:50:16.489Z,54.821523
2023-02-07T19:55:16.110Z,62.927832
2023-02-07T20:00:16.546Z,45.478808
2023-02-07T20:05:16.120Z,39.335834
2023-02-07T20:10:17.736Z,29.595303
2023-02-07T20:15:17.165Z,29.527705
2023-02-07T20:20:16.776Z,39.136358
2023-02-07T20:25:15.726Z,42.382796
2023-02-07T20:30:15.843Z,29.613811
2023-02-07T20:35:16.477Z,52.967575
2023-02-07T20:40:16.104Z,84.608556
2023-02-07T20:45:15.635Z,115.242934
2023-02-07T20:50:24.128Z,169.137400
2023-02-07T20:55:15.996Z,211.905613
2023-02-07T21:00:15.975Z,197.042688
2023-02-07T21:05:16.802Z,240.349678
2023-02-07T21:10:16.290Z,351.321470
2023-02-07T21:15:17.229Z,246.419618
2023-02-07T21:20:15.907Z,208.605849
2023-02-07T21:25:17.014Z,212.970791
2023-02-07T21:30:17.780Z,206.871769
2023-02-07T21:35:16.147Z,200.122707
2023-02-07T21:40:16.135Z,199.350197
2023-02-07T21:45:17.196Z,171.188061
2023-02-07T21:50:16.412Z,146.805247
2023-02-07T21:55:17.145Z,128.746272
2023-02-07T22:00:15.957Z,153.355956
2023-02-07T22:05:16.756Z,188.754597
2023-02-07T22:10:16.500Z,244.977423
2023-02-07T22:15:17.861Z,261.418495
2023-02-07T22:20:15.693Z,199.803886
2023-02-07T22:25:16.960Z,264.385765
2023-02-07T22:30:16.423Z,237.923694
2023-02-07T22:35:21.198Z,258.308195
2023-02-07T22:40:15.890Z,245.132336
2023-02-07T22:45:17.544Z,324.779037
2023-02-07T22:50:17.285Z,247.040034
2023-02-07T22:55:15.621Z,241.054493
2023-02-07T23:00:17.216Z,246.385784
2023-02-07T23:05:15.599Z,227.218227
2023-02-07T23:10:17.592Z,171.268660
2023-02-07T23:15:15.572Z,51.961439
2023-02-07T23:20:16.912Z,155.117611
2023-02-07T23:25:16.730Z,186.370412
2023-02-07T23:30:17.196Z,172.279343
2023-02-07T23:35:16.296Z,156.547498
2023-02-07T23:40:16.435Z,143.965146
2023-02-07T23:45:16.081Z,123.444247
2023-02-07T23:50:16.874Z,155.395137
2023-02-07T23:55:15.645Z,141.661729
